createdAt,value
2017-03-08T00:00:56.135Z,6.49
2017-03-08T00:01:56.105Z,6.51
2017-03-08T00:02:56.097Z,6.4
2017-03-08T00:03:56.085Z,6.41
2017-03-08T00:04:56.090Z,6.36
2017-03-08T00:05:56.061Z,6.33
2017-03-08T00:06:56.048Z,6.36
2017-03-08T00:07:56.039Z,6.31
2017-03-08T00:08:56.037Z,6.46
2017-03-08T00:09:56.025Z,6.38
2017-03-08T00:10:56.039Z,6.44
2017-03-08T00:11:55.993Z,6.49
2017-03-08T00:12:55.992Z,6.41
2017-03-08T00:13:55.974Z,6.44
2017-03-08T00:14:55.966Z,6.46
2017-03-08T00:15:55.573Z,6.48
2017-03-08T00:16:55.938Z,6.55
2017-03-08T00:17:55.940Z,6.51
2017-03-08T00:18:55.977Z,6.52
2017-03-08T00:19:55.904Z,6.55
2017-03-08T00:20:55.502Z,6.52
2017-03-08T00:21:55.880Z,6.46
2017-03-08T00:22:55.873Z,6.61
2017-03-08T00:23:55.858Z,6.48
2017-03-08T00:24:55.870Z,6.44
2017-03-08T00:25:55.852Z,6.49
2017-03-08T00:26:55.854Z,6.59
2017-03-08T00:27:55.821Z,6.41
2017-03-08T00:28:55.817Z,6.54
2017-03-08T00:29:55.406Z,6.54
2017-03-08T00:30:55.778Z,6.55
2017-03-08T00:31:55.772Z,6.49
2017-03-08T00:32:55.761Z,6.49
2017-03-08T00:33:55.758Z,6.54
2017-03-08T00:34:55.734Z,6.52
2017-03-08T00:35:55.337Z,6.48
2017-03-08T00:36:55.715Z,6.59
2017-03-08T00:37:55.721Z,6.51
2017-03-08T00:38:55.703Z,6.52
2017-03-08T00:39:55.680Z,6.49
2017-03-08T00:40:55.283Z,6.51
2017-03-08T00:41:55.661Z,6.55
2017-03-08T00:42:55.665Z,6.48
2017-03-08T00:43:55.641Z,6.48
2017-03-08T00:44:55.627Z,6.51
2017-03-08T00:45:55.621Z,6.55
2017-03-08T00:46:55.630Z,6.52
2017-03-08T00:47:55.621Z,6.55
2017-03-08T00:48:55.586Z,6.54
2017-03-08T00:49:55.576Z,6.52
2017-03-08T00:50:55.583Z,6.51
2017-03-08T00:51:55.547Z,6.49
2017-03-08T00:52:55.538Z,6.62
2017-03-08T00:53:55.541Z,6.61
2017-03-08T00:54:55.519Z,6.58
2017-03-08T00:55:55.515Z,6.66
2017-03-08T00:56:55.110Z,6.61
2017-03-08T00:57:55.478Z,6.59
2017-03-08T00:58:55.476Z,6.58
2017-03-08T00:59:55.075Z,6.64
2017-03-08T01:00:55.465Z,6.58
2017-03-08T01:01:55.434Z,6.56
2017-03-08T01:02:55.425Z,6.64
2017-03-08T01:03:55.425Z,6.64
2017-03-08T01:04:55.407Z,6.67
2017-03-08T01:05:55.397Z,6.59
2017-03-08T01:06:55.377Z,6.61
2017-03-08T01:07:55.368Z,6.69
2017-03-08T01:08:54.973Z,6.71
2017-03-08T01:09:54.956Z,6.64
2017-03-08T01:10:55.336Z,6.69
2017-03-08T01:11:55.349Z,6.7
2017-03-08T01:12:55.307Z,6.66
2017-03-08T01:13:55.306Z,6.66
2017-03-08T01:14:55.285Z,6.67
2017-03-08T01:15:55.274Z,6.66
2017-03-08T01:16:55.284Z,6.66
2017-03-08T01:17:55.253Z,6.61
2017-03-08T01:18:55.244Z,6.62
2017-03-08T01:19:55.244Z,6.67
2017-03-08T01:20:55.221Z,6.59
2017-03-08T01:21:55.210Z,6.71
2017-03-08T01:22:55.195Z,6.67
2017-03-08T01:23:55.203Z,6.7
2017-03-08T01:24:55.171Z,6.62
2017-03-08T01:25:55.163Z,6.74
2017-03-08T01:26:55.152Z,6.74
2017-03-08T01:27:55.145Z,6.7
2017-03-08T01:28:55.158Z,6.62
2017-03-08T01:29:55.121Z,6.74
2017-03-08T01:30:55.134Z,6.71
2017-03-08T01:31:55.120Z,6.8
2017-03-08T01:32:55.093Z,6.8
2017-03-08T01:33:55.096Z,6.77
2017-03-08T01:34:55.077Z,6.79
2017-03-08T01:35:55.058Z,6.77
2017-03-08T01:36:55.046Z,6.81
2017-03-08T01:37:55.035Z,6.84
2017-03-08T01:38:55.021Z,6.79
2017-03-08T01:39:55.011Z,6.79
2017-03-08T01:40:55.004Z,6.79
2017-03-08T01:41:54.985Z,6.85
2017-03-08T01:42:54.976Z,6.85
2017-03-08T01:43:54.993Z,6.84
2017-03-08T01:44:54.951Z,6.74
2017-03-08T01:45:54.948Z,6.8
2017-03-08T01:46:54.929Z,6.69
2017-03-08T01:47:54.948Z,6.73
2017-03-08T01:48:54.920Z,6.7
2017-03-08T01:49:54.913Z,6.69
2017-03-08T01:50:54.899Z,6.74
2017-03-08T01:51:54.880Z,6.73
2017-03-08T01:52:54.863Z,6.7
2017-03-08T01:53:54.870Z,6.71
2017-03-08T01:54:54.846Z,6.74
2017-03-08T01:55:54.829Z,6.67
2017-03-08T01:56:54.821Z,6.56
2017-03-08T01:57:54.811Z,6.56
2017-03-08T01:58:54.796Z,6.59
2017-03-08T01:59:54.788Z,6.52
2017-03-08T02:00:54.791Z,6.56
2017-03-08T02:01:54.767Z,6.49
2017-03-08T02:02:54.369Z,6.58
2017-03-08T02:03:54.752Z,6.48
2017-03-08T02:04:54.741Z,6.52
2017-03-08T02:05:54.716Z,6.55
2017-03-08T02:06:54.724Z,6.54
2017-03-08T02:07:54.705Z,6.48
2017-03-08T02:08:54.688Z,6.48
2017-03-08T02:09:54.676Z,6.41
2017-03-08T02:10:54.660Z,6.55
2017-03-08T02:11:54.649Z,6.4
2017-03-08T02:12:54.640Z,6.36
2017-03-08T02:13:54.628Z,6.41
2017-03-08T02:14:54.638Z,6.43
2017-03-08T02:15:54.609Z,6.43
2017-03-08T02:16:54.607Z,6.34
2017-03-08T02:17:54.584Z,6.48
2017-03-08T02:18:54.578Z,6.36
2017-03-08T02:19:54.585Z,6.31
2017-03-08T02:20:54.551Z,6.43
2017-03-08T02:21:54.536Z,6.43
2017-03-08T02:22:54.527Z,6.41
2017-03-08T02:23:54.534Z,6.38
2017-03-08T02:24:54.517Z,6.4
2017-03-08T02:25:54.499Z,6.4
2017-03-08T02:26:54.488Z,6.37
2017-03-08T02:27:54.473Z,6.41
2017-03-08T02:28:54.461Z,6.49
2017-03-08T02:29:54.462Z,6.41
2017-03-08T02:30:54.450Z,6.41
2017-03-08T02:31:54.430Z,6.49
2017-03-08T02:32:54.446Z,6.48
2017-03-08T02:33:54.408Z,6.54
2017-03-08T02:34:54.408Z,6.48
2017-03-08T02:35:54.001Z,6.51
2017-03-08T02:36:54.386Z,6.55
2017-03-08T02:37:54.367Z,6.55
2017-03-08T02:38:54.351Z,6.55
2017-03-08T02:39:54.338Z,6.54
2017-03-08T02:40:54.329Z,6.56
2017-03-08T02:41:54.316Z,6.61
2017-03-08T02:42:54.330Z,6.54
2017-03-08T02:43:53.911Z,6.62
2017-03-08T02:44:54.302Z,6.58
2017-03-08T02:45:54.308Z,6.69
2017-03-08T02:46:54.263Z,6.69
2017-03-08T02:47:54.250Z,6.69
2017-03-08T02:48:54.240Z,6.74
2017-03-08T02:49:54.237Z,6.66
2017-03-08T02:50:54.224Z,6.61
2017-03-08T02:51:54.210Z,6.56
2017-03-08T02:52:54.206Z,6.58
2017-03-08T02:53:54.183Z,6.49
2017-03-08T02:54:54.170Z,6.52
2017-03-08T02:55:54.161Z,6.56
2017-03-08T02:56:54.147Z,6.55
2017-03-08T02:57:54.150Z,6.55
2017-03-08T02:58:54.128Z,6.62
2017-03-08T02:59:54.115Z,6.58
2017-03-08T03:00:54.117Z,6.62
2017-03-08T03:01:54.096Z,6.64
2017-03-08T03:02:54.092Z,6.67
2017-03-08T03:03:54.074Z,6.62
2017-03-08T03:04:54.062Z,6.64
2017-03-08T03:05:54.047Z,6.67
2017-03-08T03:06:54.054Z,6.62
2017-03-08T03:07:54.036Z,6.67
2017-03-08T03:08:54.039Z,6.73
2017-03-08T03:09:54.013Z,6.71
2017-03-08T03:10:53.994Z,6.62
2017-03-08T03:11:54.001Z,6.58
2017-03-08T03:12:53.975Z,6.52
2017-03-08T03:13:53.973Z,6.52
2017-03-08T03:14:53.951Z,6.49
2017-03-08T03:15:53.956Z,6.41
2017-03-08T03:16:53.927Z,6.34
2017-03-08T03:17:53.923Z,6.33
2017-03-08T03:18:53.908Z,6.31
2017-03-08T03:19:53.897Z,6.22
2017-03-08T03:20:53.884Z,6.18
2017-03-08T03:21:53.877Z,6.15
2017-03-08T03:22:53.862Z,6.27
2017-03-08T03:23:53.459Z,6.22
2017-03-08T03:24:53.844Z,6.17
2017-03-08T03:25:53.825Z,6.12
2017-03-08T03:26:53.436Z,6.17
2017-03-08T03:27:53.418Z,6.17
2017-03-08T03:28:53.799Z,6.14
2017-03-08T03:29:53.779Z,6.17
2017-03-08T03:30:53.780Z,6.11
2017-03-08T03:31:53.758Z,6.04
2017-03-08T03:32:53.761Z,6.04
2017-03-08T03:33:53.736Z,5.93
2017-03-08T03:34:53.721Z,6.08
2017-03-08T03:35:53.718Z,5.97
2017-03-08T03:36:53.706Z,6.03
2017-03-08T03:37:53.304Z,6.09
2017-03-08T03:38:53.692Z,6.01
2017-03-08T03:39:53.667Z,6.01
2017-03-08T03:40:53.905Z,5.99
2017-03-08T03:41:53.651Z,6
2017-03-08T03:42:53.633Z,6.11
2017-03-08T03:43:53.635Z,6
2017-03-08T03:44:53.632Z,6.09
2017-03-08T03:45:53.610Z,6.04
2017-03-08T03:46:53.586Z,6.06
2017-03-08T03:47:53.599Z,6.04
2017-03-08T03:48:53.573Z,6.06
2017-03-08T03:49:53.555Z,6
2017-03-08T03:50:53.842Z,6.03
2017-03-08T03:51:53.531Z,6
2017-03-08T03:52:53.517Z,5.97
2017-03-08T03:53:53.529Z,6.03
2017-03-08T03:54:53.513Z,6.03
2017-03-08T03:55:53.501Z,6.03
2017-03-08T03:56:53.099Z,6.04
2017-03-08T03:57:53.461Z,5.96
2017-03-08T03:58:53.447Z,5.99
2017-03-08T03:59:53.434Z,6.01
2017-03-08T04:00:53.444Z,6
2017-03-08T04:01:53.027Z,6.08
2017-03-08T04:02:53.409Z,6.11
2017-03-08T04:03:53.013Z,5.99
2017-03-08T04:04:53.392Z,6.04
2017-03-08T04:05:53.370Z,5.94
2017-03-08T04:06:53.368Z,6.03
2017-03-08T04:07:53.346Z,5.96
2017-03-08T04:08:53.347Z,5.93
2017-03-08T04:09:53.336Z,5.9
2017-03-08T04:10:53.320Z,5.91
2017-03-08T04:11:53.301Z,5.91
2017-03-08T04:12:53.290Z,5.97
2017-03-08T04:13:53.276Z,5.91
2017-03-08T04:14:53.268Z,5.93
2017-03-08T04:15:53.254Z,5.83
2017-03-08T04:16:53.241Z,5.93
2017-03-08T04:17:53.232Z,5.9
2017-03-08T04:18:53.218Z,5.89
2017-03-08T04:19:53.207Z,5.91
2017-03-08T04:20:53.212Z,5.86
2017-03-08T04:21:53.189Z,5.96
2017-03-08T04:22:53.186Z,5.89
2017-03-08T04:23:53.162Z,5.83
2017-03-08T04:24:53.156Z,5.9
2017-03-08T04:25:53.138Z,5.91
2017-03-08T04:26:53.145Z,5.82
2017-03-08T04:27:53.147Z,5.96
2017-03-08T04:28:53.111Z,5.83
2017-03-08T04:29:53.104Z,5.79
2017-03-08T04:30:53.081Z,5.82
2017-03-08T04:31:53.070Z,5.75
2017-03-08T04:32:53.081Z,5.68
2017-03-08T04:33:53.050Z,5.68
2017-03-08T04:34:53.045Z,5.68
2017-03-08T04:35:53.042Z,5.74
2017-03-08T04:36:53.035Z,5.76
2017-03-08T04:37:53.001Z,5.71
2017-03-08T04:38:52.995Z,5.78
2017-03-08T04:39:52.999Z,5.83
2017-03-08T04:40:53.266Z,5.79
2017-03-08T04:41:52.961Z,5.9
2017-03-08T04:42:52.943Z,5.9
2017-03-08T04:43:52.931Z,6.01
2017-03-08T04:44:52.923Z,6
2017-03-08T04:45:52.917Z,6.04
2017-03-08T04:46:52.897Z,6.12
2017-03-08T04:47:52.892Z,6.06
2017-03-08T04:48:52.876Z,6.09
2017-03-08T04:49:52.886Z,6.09
2017-03-08T04:50:52.863Z,6.11
2017-03-08T04:51:52.838Z,6.14
2017-03-08T04:52:52.829Z,6.03
2017-03-08T04:53:52.813Z,6.17
2017-03-08T04:54:52.815Z,6.11
2017-03-08T04:55:52.793Z,6.03
2017-03-08T04:56:52.779Z,6.15
2017-03-08T04:57:52.385Z,6.22
2017-03-08T04:58:52.372Z,6.19
2017-03-08T04:59:52.757Z,6.21
2017-03-08T05:00:52.736Z,6.27
2017-03-08T05:01:52.731Z,6.22
2017-03-08T05:02:52.732Z,6.17
2017-03-08T05:03:52.706Z,6.3
2017-03-08T05:04:52.692Z,6.3
2017-03-08T05:05:52.677Z,6.28
2017-03-08T05:06:52.664Z,6.28
2017-03-08T05:07:52.668Z,6.31
2017-03-08T05:08:52.641Z,6.18
2017-03-08T05:09:52.646Z,6.31
2017-03-08T05:10:52.633Z,6.25
2017-03-08T05:11:52.609Z,6.27
2017-03-08T05:12:52.629Z,6.36
2017-03-08T05:13:52.605Z,6.36
2017-03-08T05:14:52.579Z,6.36
2017-03-08T05:15:52.563Z,6.34
2017-03-08T05:16:52.550Z,6.36
2017-03-08T05:17:52.542Z,6.36
2017-03-08T05:18:52.536Z,6.4
2017-03-08T05:19:52.534Z,6.19
2017-03-08T05:20:52.505Z,6.3
2017-03-08T05:21:52.113Z,6.19
2017-03-08T05:22:52.483Z,6.18
2017-03-08T05:23:52.485Z,6.11
2017-03-08T05:24:52.460Z,6.11
2017-03-08T05:25:52.448Z,6.11
2017-03-08T05:26:52.436Z,6.04
2017-03-08T05:27:52.428Z,6.04
2017-03-08T05:28:52.025Z,6.01
2017-03-08T05:29:52.400Z,5.96
2017-03-08T05:30:52.390Z,5.99
2017-03-08T05:31:52.390Z,5.99
2017-03-08T05:32:52.376Z,5.97
2017-03-08T05:33:52.394Z,6.11
2017-03-08T05:34:52.358Z,6.01
2017-03-08T05:35:52.330Z,6.03
2017-03-08T05:36:52.325Z,6.06
2017-03-08T05:37:52.345Z,6.04
2017-03-08T05:38:52.303Z,6.03
2017-03-08T05:39:52.299Z,5.96
2017-03-08T05:40:52.293Z,5.99
2017-03-08T05:41:52.269Z,6.03
2017-03-08T05:42:52.275Z,5.97
2017-03-08T05:43:52.246Z,6
2017-03-08T05:44:52.255Z,6.01
2017-03-08T05:45:52.235Z,6.01
2017-03-08T05:46:52.206Z,6
2017-03-08T05:47:52.211Z,5.94
2017-03-08T05:48:52.207Z,6.06
2017-03-08T05:49:51.788Z,5.94
2017-03-08T05:50:52.186Z,5.97
2017-03-08T05:51:52.155Z,6.03
2017-03-08T05:52:52.151Z,5.93
2017-03-08T05:53:52.126Z,5.94
2017-03-08T05:54:52.114Z,5.91
2017-03-08T05:55:52.103Z,5.85
2017-03-08T05:56:52.099Z,5.97
2017-03-08T05:57:52.078Z,5.99
2017-03-08T05:58:52.067Z,5.99
2017-03-08T05:59:52.062Z,5.91
2017-03-08T06:00:52.055Z,6
2017-03-08T06:01:52.042Z,6.01
2017-03-08T06:02:52.023Z,5.99
2017-03-08T06:03:52.029Z,5.97
2017-03-08T06:04:52.016Z,5.97
2017-03-08T06:05:51.995Z,6
2017-03-08T06:06:51.604Z,5.9
2017-03-08T06:07:51.972Z,5.91
2017-03-08T06:08:51.952Z,5.91
2017-03-08T06:09:51.961Z,5.89
2017-03-08T06:10:51.944Z,5.9
2017-03-08T06:11:51.966Z,5.93
2017-03-08T06:12:51.911Z,5.94
2017-03-08T06:13:51.896Z,5.94
2017-03-08T06:14:51.890Z,5.91
2017-03-08T06:15:51.876Z,6.04
2017-03-08T06:16:51.876Z,6.06
2017-03-08T06:17:51.854Z,6.15
2017-03-08T06:18:51.458Z,6.21
2017-03-08T06:19:51.827Z,6.46
2017-03-08T06:20:51.828Z,6.51
2017-03-08T06:21:51.804Z,6.61
2017-03-08T06:22:51.809Z,6.73
2017-03-08T06:23:51.784Z,6.88
2017-03-08T06:24:51.772Z,6.98
2017-03-08T06:25:51.771Z,7.09
2017-03-08T06:26:51.763Z,7.16
2017-03-08T06:27:51.741Z,7.12
2017-03-08T06:28:51.728Z,7.21
2017-03-08T06:29:51.718Z,7.24
2017-03-08T06:30:51.717Z,7.27
2017-03-08T06:31:51.698Z,7.34
2017-03-08T06:32:51.688Z,7.4
2017-03-08T06:33:51.675Z,7.46
2017-03-08T06:34:51.675Z,7.52
2017-03-08T06:35:51.663Z,7.49
2017-03-08T06:36:51.649Z,7.63
2017-03-08T06:37:51.633Z,7.63
2017-03-08T06:38:51.620Z,7.57
2017-03-08T06:39:51.614Z,7.64
2017-03-08T06:40:51.618Z,7.69
2017-03-08T06:41:51.590Z,7.85
2017-03-08T06:42:51.584Z,7.74
2017-03-08T06:43:51.570Z,7.72
2017-03-08T06:44:51.560Z,7.77
2017-03-08T06:45:51.551Z,7.82
2017-03-08T06:46:51.580Z,7.69
2017-03-08T06:47:51.531Z,7.75
2017-03-08T06:48:51.518Z,7.75
2017-03-08T06:49:51.506Z,7.79
2017-03-08T06:50:51.516Z,7.69
2017-03-08T06:51:51.501Z,7.74
2017-03-08T06:52:51.487Z,7.67
2017-03-08T06:53:51.480Z,7.71
2017-03-08T06:54:51.474Z,7.68
2017-03-08T06:55:51.446Z,7.69
2017-03-08T06:56:51.440Z,7.77
2017-03-08T06:57:51.427Z,7.77
2017-03-08T06:58:51.431Z,7.69
2017-03-08T06:59:51.406Z,7.75
2017-03-08T07:00:51.395Z,7.79
2017-03-08T07:01:51.401Z,7.77
2017-03-08T07:02:51.384Z,7.82
2017-03-08T07:03:51.365Z,7.8
2017-03-08T07:04:51.362Z,7.82
2017-03-08T07:05:51.358Z,7.86
2017-03-08T07:06:51.340Z,7.82
2017-03-08T07:07:50.934Z,7.79
2017-03-08T07:08:51.327Z,7.79
2017-03-08T07:09:51.335Z,7.82
2017-03-08T07:10:51.301Z,7.79
2017-03-08T07:11:51.300Z,7.68
2017-03-08T07:12:51.271Z,7.67
2017-03-08T07:13:51.261Z,7.63
2017-03-08T07:14:51.251Z,7.57
2017-03-08T07:15:51.243Z,7.57
2017-03-08T07:16:51.240Z,7.57
2017-03-08T07:17:51.222Z,7.49
2017-03-08T07:18:51.215Z,7.46
2017-03-08T07:19:51.213Z,7.5
2017-03-08T07:20:51.478Z,7.49
2017-03-08T07:21:51.184Z,7.53
2017-03-08T07:22:51.171Z,7.58
2017-03-08T07:23:51.163Z,7.55
2017-03-08T07:24:51.154Z,7.57
2017-03-08T07:25:51.147Z,7.6
2017-03-08T07:26:51.133Z,7.67
2017-03-08T07:27:51.130Z,7.67
2017-03-08T07:28:51.123Z,7.72
2017-03-08T07:29:51.102Z,7.68
2017-03-08T07:30:51.087Z,7.79
2017-03-08T07:31:51.079Z,7.85
2017-03-08T07:32:51.093Z,7.75
2017-03-08T07:33:51.057Z,7.77
2017-03-08T07:34:51.046Z,7.8
2017-03-08T07:35:50.687Z,7.82
2017-03-08T07:36:51.030Z,7.8
2017-03-08T07:37:50.630Z,7.85
2017-03-08T07:38:51.006Z,7.8
2017-03-08T07:39:51.008Z,7.75
2017-03-08T07:40:50.994Z,7.68
2017-03-08T07:41:50.991Z,7.71
2017-03-08T07:42:50.973Z,7.67
2017-03-08T07:43:50.957Z,7.69
2017-03-08T07:44:50.556Z,7.67
2017-03-08T07:45:50.957Z,7.69
2017-03-08T07:46:50.939Z,7.71
2017-03-08T07:47:50.556Z,7.77
2017-03-08T07:48:50.905Z,7.69
2017-03-08T07:49:50.910Z,7.85
2017-03-08T07:50:50.883Z,7.74
2017-03-08T07:51:50.879Z,7.61
2017-03-08T07:52:50.868Z,7.63
2017-03-08T07:53:50.876Z,7.6
2017-03-08T07:54:50.869Z,7.6
2017-03-08T07:55:50.834Z,7.64
2017-03-08T07:56:50.845Z,7.6
2017-03-08T07:57:50.810Z,7.57
2017-03-08T07:58:50.804Z,7.57
2017-03-08T07:59:50.793Z,7.67
2017-03-08T08:00:50.787Z,7.68
2017-03-08T08:01:50.789Z,7.72
2017-03-08T08:02:50.762Z,7.8
2017-03-08T08:03:50.754Z,7.87
2017-03-08T08:04:50.741Z,7.89
2017-03-08T08:05:50.739Z,7.95
2017-03-08T08:06:50.720Z,8
2017-03-08T08:07:50.337Z,8.04
2017-03-08T08:08:50.701Z,8.16
2017-03-08T08:09:50.700Z,8.26
2017-03-08T08:10:50.706Z,8.36
2017-03-08T08:11:50.681Z,8.37
2017-03-08T08:12:50.668Z,8.48
2017-03-08T08:13:50.653Z,8.59
2017-03-08T08:14:50.680Z,8.76
2017-03-08T08:15:50.649Z,8.76
2017-03-08T08:16:50.642Z,8.77
2017-03-08T08:17:50.621Z,8.87
2017-03-08T08:18:50.617Z,9.02
2017-03-08T08:19:50.597Z,9.13
2017-03-08T08:20:50.593Z,9.23
2017-03-08T08:21:50.580Z,9.4
2017-03-08T08:22:50.594Z,9.5
2017-03-08T08:23:50.575Z,9.58
2017-03-08T08:24:50.552Z,9.69
2017-03-08T08:25:50.546Z,9.76
2017-03-08T08:26:50.559Z,9.9
2017-03-08T08:27:50.537Z,10.02
2017-03-08T08:28:50.534Z,10.07
2017-03-08T08:29:50.512Z,10.11
2017-03-08T08:30:50.532Z,10.14
2017-03-08T08:31:50.507Z,10.26
2017-03-08T08:32:50.489Z,10.32
2017-03-08T08:33:50.494Z,10.42
2017-03-08T08:34:50.103Z,10.45
2017-03-08T08:35:50.493Z,10.53
2017-03-08T08:36:50.478Z,10.56
2017-03-08T08:37:50.502Z,10.59
2017-03-08T08:38:50.465Z,10.64
2017-03-08T08:39:50.441Z,10.71
2017-03-08T08:40:50.455Z,10.85
2017-03-08T08:41:50.421Z,10.89
2017-03-08T08:42:50.438Z,10.89
2017-03-08T08:43:50.431Z,10.92
2017-03-08T08:44:50.406Z,10.94
2017-03-08T08:45:50.393Z,10.91
2017-03-08T08:46:50.387Z,11.04
2017-03-08T08:47:49.993Z,11.09
2017-03-08T08:48:50.376Z,11.07
2017-03-08T08:49:50.369Z,11.24
2017-03-08T08:50:50.372Z,11.24
2017-03-08T08:51:50.373Z,11.25
2017-03-08T08:52:50.347Z,11.25
2017-03-08T08:53:50.372Z,11.33
2017-03-08T08:54:50.338Z,11.4
2017-03-08T08:55:50.329Z,11.43
2017-03-08T08:56:50.330Z,11.51
2017-03-08T08:57:50.337Z,11.6
2017-03-08T08:58:49.925Z,11.75
2017-03-08T08:59:50.301Z,11.8
2017-03-08T09:00:50.300Z,11.83
2017-03-08T09:01:50.291Z,11.85
2017-03-08T09:02:50.285Z,11.83
2017-03-08T09:03:50.280Z,11.96
2017-03-08T09:04:50.289Z,11.99
2017-03-08T09:05:50.262Z,11.78
2017-03-08T09:06:50.257Z,11.8
2017-03-08T09:07:50.266Z,11.88
2017-03-08T09:08:50.251Z,11.86
2017-03-08T09:09:50.246Z,11.99
2017-03-08T09:10:50.234Z,12.05
2017-03-08T09:11:50.231Z,12.01
2017-03-08T09:12:50.232Z,12.04
2017-03-08T09:13:50.234Z,12.04
2017-03-08T09:14:50.209Z,12.04
2017-03-08T09:15:50.218Z,11.98
2017-03-08T09:16:50.213Z,11.98
2017-03-08T09:17:50.197Z,11.95
2017-03-08T09:18:50.196Z,11.88
2017-03-08T09:19:50.192Z,11.82
2017-03-08T09:20:50.185Z,11.76
2017-03-08T09:21:50.178Z,11.61
2017-03-08T09:22:50.164Z,11.49
2017-03-08T09:23:50.165Z,11.44
2017-03-08T09:24:50.163Z,11.22
2017-03-08T09:25:50.147Z,11.37
2017-03-08T09:26:50.140Z,11.28
2017-03-08T09:27:50.133Z,11.24
2017-03-08T09:28:50.128Z,11.1
2017-03-08T09:29:50.131Z,11.1
2017-03-08T09:30:50.120Z,11.06
2017-03-08T09:31:50.109Z,10.99
2017-03-08T09:32:50.114Z,11.03
2017-03-08T09:33:50.107Z,10.85
2017-03-08T09:34:50.091Z,10.88
2017-03-08T09:35:49.705Z,10.85
2017-03-08T09:36:50.076Z,10.88
2017-03-08T09:37:50.069Z,10.91
2017-03-08T09:38:50.064Z,10.88
2017-03-08T09:39:50.067Z,10.89
2017-03-08T09:40:50.061Z,10.89
2017-03-08T09:41:50.048Z,10.89
2017-03-08T09:42:50.034Z,10.78
2017-03-08T09:43:50.026Z,10.78
2017-03-08T09:44:50.021Z,10.73
2017-03-08T09:45:50.014Z,10.68
2017-03-08T09:46:50.008Z,10.74
2017-03-08T09:47:49.999Z,10.7
2017-03-08T09:48:49.993Z,10.76
2017-03-08T09:49:50.012Z,10.79
2017-03-08T09:50:50.004Z,10.73
2017-03-08T09:51:49.973Z,10.78
2017-03-08T09:52:49.965Z,10.79
2017-03-08T09:53:49.966Z,10.73
2017-03-08T09:54:49.953Z,10.76
2017-03-08T09:55:50.002Z,10.81
2017-03-08T09:56:49.941Z,10.81
2017-03-08T09:57:49.943Z,10.78
2017-03-08T09:58:49.922Z,10.86
2017-03-08T09:59:49.939Z,10.94
2017-03-08T10:00:49.907Z,10.86
2017-03-08T10:01:49.913Z,10.97
2017-03-08T10:02:49.896Z,10.88
2017-03-08T10:03:49.895Z,10.94
2017-03-08T10:04:50.081Z,11.04
2017-03-08T10:05:49.896Z,11.09
2017-03-08T10:06:49.869Z,11.09
2017-03-08T10:07:49.861Z,11.1
2017-03-08T10:08:49.871Z,11.24
2017-03-08T10:09:49.859Z,11.18
2017-03-08T10:10:49.840Z,11.18
2017-03-08T10:11:49.834Z,11.24
2017-03-08T10:12:49.853Z,11.27
2017-03-08T10:13:49.815Z,11.22
2017-03-08T10:14:49.836Z,11.25
2017-03-08T10:15:49.821Z,11.29
2017-03-08T10:16:49.794Z,11.4
2017-03-08T10:17:49.801Z,11.44
2017-03-08T10:18:49.794Z,11.61
2017-03-08T10:19:49.777Z,11.61
2017-03-08T10:20:49.768Z,11.62
2017-03-08T10:21:49.757Z,11.57
2017-03-08T10:22:49.761Z,11.64
2017-03-08T10:23:49.756Z,11.69
2017-03-08T10:24:49.739Z,11.7
2017-03-08T10:25:49.736Z,11.85
2017-03-08T10:26:49.762Z,11.86
2017-03-08T10:27:49.716Z,11.96
2017-03-08T10:28:49.713Z,11.96
2017-03-08T10:29:49.703Z,12.02
2017-03-08T10:30:49.700Z,12.17
2017-03-08T10:31:49.689Z,12.2
2017-03-08T10:32:49.685Z,12.29
2017-03-08T10:33:49.682Z,12.29
2017-03-08T10:34:49.683Z,12.42
2017-03-08T10:35:49.669Z,12.56
2017-03-08T10:36:49.671Z,12.6
2017-03-08T10:37:49.663Z,12.89
2017-03-08T10:38:49.646Z,13
2017-03-08T10:39:49.643Z,13.12
2017-03-08T10:40:49.636Z,13.26
2017-03-08T10:41:49.626Z,13.3
2017-03-08T10:42:49.634Z,13.44
2017-03-08T10:43:49.615Z,13.46
2017-03-08T10:44:49.620Z,13.46
2017-03-08T10:45:49.605Z,13.52
2017-03-08T10:46:49.616Z,13.48
2017-03-08T10:47:49.598Z,13.63
2017-03-08T10:48:49.590Z,13.73
2017-03-08T10:49:49.604Z,13.77
2017-03-08T10:50:49.586Z,13.82
2017-03-08T10:51:49.577Z,13.96
2017-03-08T10:52:49.568Z,14.09
2017-03-08T10:53:49.565Z,14.04
2017-03-08T10:54:49.579Z,14.07
2017-03-08T10:55:49.559Z,14.1
2017-03-08T10:56:49.551Z,14.17
2017-03-08T10:57:49.559Z,14.21
2017-03-08T10:58:49.548Z,14.32
2017-03-08T10:59:49.812Z,14.35
2017-03-08T11:00:49.542Z,14.4
2017-03-08T11:01:49.524Z,14.47
2017-03-08T11:02:49.525Z,14.52
2017-03-08T11:03:49.532Z,14.52
2017-03-08T11:04:49.522Z,14.68
2017-03-08T11:05:49.509Z,14.6
2017-03-08T11:06:49.503Z,14.86
2017-03-08T11:07:49.516Z,14.78
2017-03-08T11:08:49.493Z,14.8
2017-03-08T11:09:49.497Z,14.86
2017-03-08T11:10:49.488Z,14.91
2017-03-08T11:11:49.482Z,14.84
2017-03-08T11:12:49.484Z,14.81
2017-03-08T11:13:49.492Z,14.91
2017-03-08T11:14:49.470Z,14.88
2017-03-08T11:15:49.472Z,14.84
2017-03-08T11:16:49.471Z,14.84
2017-03-08T11:17:49.461Z,14.88
2017-03-08T11:18:49.452Z,14.84
2017-03-08T11:19:49.446Z,14.86
2017-03-08T11:20:49.451Z,14.83
2017-03-08T11:21:49.445Z,14.84
2017-03-08T11:22:49.434Z,14.83
2017-03-08T11:23:49.454Z,14.88
2017-03-08T11:24:49.442Z,14.92
2017-03-08T11:25:49.430Z,14.94
2017-03-08T11:26:49.420Z,15.03
2017-03-08T11:27:49.418Z,15.21
2017-03-08T11:28:49.414Z,15.16
2017-03-08T11:29:49.408Z,15.27
2017-03-08T11:30:49.405Z,15.16
2017-03-08T11:31:49.413Z,15.16
2017-03-08T11:32:49.405Z,15.17
2017-03-08T11:33:49.405Z,15.21
2017-03-08T11:34:49.396Z,15.21
2017-03-08T11:35:49.387Z,15.17
2017-03-08T11:36:49.401Z,15.23
2017-03-08T11:37:49.385Z,15.2
2017-03-08T11:38:49.384Z,15.16
2017-03-08T11:39:49.373Z,15.2
2017-03-08T11:40:49.389Z,15.19
2017-03-08T11:41:49.367Z,15.27
2017-03-08T11:42:49.357Z,15.34
2017-03-08T11:43:49.357Z,15.29
2017-03-08T11:44:49.351Z,15.29
2017-03-08T11:45:49.362Z,15.28
2017-03-08T11:46:48.961Z,15.2
2017-03-08T11:47:49.346Z,15.21
2017-03-08T11:48:49.340Z,15.25
2017-03-08T11:49:48.950Z,15.23
2017-03-08T11:50:49.329Z,15.27
2017-03-08T11:51:48.939Z,15.2
2017-03-08T11:52:49.324Z,15.21
2017-03-08T11:53:49.320Z,15.23
2017-03-08T11:54:49.319Z,15.25
2017-03-08T11:55:49.332Z,15.23
2017-03-08T11:56:49.309Z,15.25
2017-03-08T11:57:49.315Z,15.21
2017-03-08T11:58:49.302Z,15.16
2017-03-08T11:59:49.298Z,15.23
2017-03-08T12:00:49.297Z,15.16
2017-03-08T12:01:49.305Z,15.19
2017-03-08T12:02:49.287Z,15.14
2017-03-08T12:03:49.284Z,15.09
2017-03-08T12:04:49.293Z,15.06
2017-03-08T12:05:49.292Z,15.02
2017-03-08T12:06:49.277Z,14.95
2017-03-08T12:07:49.276Z,14.91
2017-03-08T12:08:49.282Z,14.96
2017-03-08T12:09:49.266Z,15.02
2017-03-08T12:10:49.280Z,14.98
2017-03-08T12:11:49.257Z,14.96
2017-03-08T12:12:49.251Z,15.01
2017-03-08T12:13:49.246Z,14.99
2017-03-08T12:14:49.241Z,15.02
2017-03-08T12:15:49.262Z,15.03
2017-03-08T12:16:49.242Z,15.02
2017-03-08T12:17:49.245Z,15.03
2017-03-08T12:18:49.235Z,15.01
2017-03-08T12:19:49.528Z,14.88
2017-03-08T12:20:49.225Z,14.99
2017-03-08T12:21:49.213Z,15.06
2017-03-08T12:22:49.207Z,15.03
2017-03-08T12:23:49.207Z,15.09
2017-03-08T12:24:49.201Z,15.07
2017-03-08T12:25:49.197Z,15.16
2017-03-08T12:26:49.204Z,15.03
2017-03-08T12:27:49.189Z,15.03
2017-03-08T12:28:49.211Z,14.86
2017-03-08T12:29:49.191Z,14.96
2017-03-08T12:30:49.173Z,14.96
2017-03-08T12:31:49.180Z,14.99
2017-03-08T12:32:49.168Z,14.94
2017-03-08T12:33:49.167Z,14.95
2017-03-08T12:34:49.164Z,15.01
2017-03-08T12:35:49.173Z,14.95
2017-03-08T12:36:49.179Z,14.91
2017-03-08T12:37:49.149Z,14.92
2017-03-08T12:38:49.147Z,14.96
2017-03-08T12:39:49.146Z,15.03
2017-03-08T12:40:49.140Z,15.01
2017-03-08T12:41:49.134Z,15.02
2017-03-08T12:42:49.158Z,15.06
2017-03-08T12:43:49.125Z,14.99
2017-03-08T12:44:49.143Z,14.95
2017-03-08T12:45:49.122Z,14.81
2017-03-08T12:46:48.729Z,14.84
2017-03-08T12:47:49.118Z,14.89
2017-03-08T12:48:49.108Z,14.95
2017-03-08T12:49:49.106Z,15.02
2017-03-08T12:50:49.114Z,15.01
2017-03-08T12:51:49.116Z,14.94
2017-03-08T12:52:49.101Z,15.06
2017-03-08T12:53:49.113Z,15.06
2017-03-08T12:54:49.082Z,15.09
2017-03-08T12:55:48.697Z,15.13
2017-03-08T12:56:49.081Z,15.1
2017-03-08T12:57:49.075Z,15.11
2017-03-08T12:58:49.068Z,15.23
2017-03-08T12:59:49.073Z,15.17
2017-03-08T13:00:49.058Z,15.28
2017-03-08T13:01:49.071Z,15.17
2017-03-08T13:02:49.053Z,15.23
2017-03-08T13:03:49.046Z,15.19
2017-03-08T13:04:49.044Z,15.14
2017-03-08T13:05:49.041Z,15.09
2017-03-08T13:06:48.667Z,14.99
2017-03-08T13:07:49.043Z,14.95
2017-03-08T13:08:49.026Z,14.81
2017-03-08T13:09:49.036Z,14.86
2017-03-08T13:10:49.040Z,14.64
2017-03-08T13:11:49.016Z,14.62
2017-03-08T13:12:49.027Z,14.65